Time;durP1;ratioP1;P1;durP2;ratioP2;P2;SDS_P1;SDS_P2;PMS_P1;PMS_P2;Temp;Humidity;BMP_temperature;BMP_pressure;BME280_temperature;BME280_humidity;BME280_pressure;Samples;Min_cycle;Max_cycle;Signal;HPM_P1;HPM_P2
2022/04/30 00:00:06;;;;;;;17.17;13.60;;;10.50;99.90;;;;;;5056563;28;20052;-75
2022/04/30 00:02:31;;;;;;;14.25;12.60;;;10.50;99.90;;;;;;5057098;28;20033;-75
2022/04/30 00:04:57;;;;;;;14.48;11.45;;;10.80;99.90;;;;;;5056612;28;20039;-75
2022/04/30 00:07:23;;;;;;;14.82;11.82;;;10.90;99.90;;;;;;5057930;28;20027;-76
2022/04/30 00:09:49;;;;;;;13.00;11.60;;;11.20;99.90;;;;;;5057701;28;20368;-76
2022/04/30 00:12:18;;;;;;;16.60;12.18;;;11.20;99.90;;;;;;5058002;28;20025;-76
2022/04/30 00:14:46;;;;;;;16.27;10.90;;;11.00;99.90;;;;;;5058121;28;20025;-75
2022/04/30 00:17:12;;;;;;;16.75;10.60;;;11.10;99.90;;;;;;5056672;28;20025;-75
2022/04/30 00:19:38;;;;;;;14.90;11.38;;;11.10;99.90;;;;;;5057918;28;20063;-74
2022/04/30 00:22:04;;;;;;;15.35;11.30;;;11.00;99.90;;;;;;5057355;28;20048;-75
2022/04/30 00:24:30;;;;;;;14.80;10.52;;;11.00;99.90;;;;;;5057842;28;20023;-74
2022/04/30 00:26:56;;;;;;;15.55;11.20;;;11.10;99.90;;;;;;5057865;28;20032;-74
2022/04/30 00:29:23;;;;;;;14.05;11.23;;;11.10;99.90;;;;;;5057984;28;20017;-74
2022/04/30 00:31:49;;;;;;;14.07;10.70;;;11.20;99.90;;;;;;5057164;28;20438;-74
2022/04/30 00:34:16;;;;;;;12.82;10.60;;;11.30;99.90;;;;;;5057899;28;20041;-75
2022/04/30 00:36:41;;;;;;;15.88;10.80;;;11.20;99.90;;;;;;5057765;28;20028;-74
2022/04/30 00:39:07;;;;;;;14.45;11.25;;;11.10;99.90;;;;;;5057824;28;20029;-74
2022/04/30 00:41:33;;;;;;;11.55;9.85;;;11.10;99.90;;;;;;5057088;28;20479;-75
2022/04/30 00:44:00;;;;;;;14.23;11.30;;;11.30;99.90;;;;;;5057728;28;20116;-75
2022/04/30 00:46:26;;;;;;;16.33;11.05;;;11.10;99.90;;;;;;5056447;28;20021;-76
2022/04/30 00:48:53;;;;;;;12.98;9.80;;;10.90;99.90;;;;;;5057788;28;20032;-75
2022/04/30 00:51:20;;;;;;;15.65;11.02;;;11.00;99.90;;;;;;5057486;28;20033;-75
2022/04/30 00:53:48;;;;;;;12.70;10.40;;;10.90;99.90;;;;;;5057760;28;20033;-75
2022/04/30 00:56:14;;;;;;;12.73;11.20;;;10.90;99.90;;;;;;5057664;28;20025;-75
2022/04/30 00:58:42;;;;;;;13.43;11.27;;;10.90;99.90;;;;;;5057656;28;20387;-75
2022/04/30 01:01:08;;;;;;;14.70;10.82;;;10.90;99.90;;;;;;5056890;28;20064;-75
2022/04/30 01:03:34;;;;;;;11.68;9.88;;;11.00;99.90;;;;;;5056190;28;20029;-76
2022/04/30 01:06:00;;;;;;;9.25;8.35;;;11.00;99.90;;;;;;5044257;28;20429;-75
2022/04/30 01:08:27;;;;;;;11.90;8.23;;;11.20;99.90;;;;;;5045367;28;20101;-76
2022/04/30 01:10:59;;;;;;;10.30;8.95;;;11.40;99.90;;;;;;5047141;28;20380;-76
2022/04/30 01:13:25;;;;;;;11.13;8.05;;;11.50;99.90;;;;;;5045773;28;20065;-76
2022/04/30 01:15:51;;;;;;;9.60;8.13;;;11.60;99.90;;;;;;5052950;28;20031;-77
2022/04/30 01:18:17;;;;;;;8.63;7.60;;;11.60;99.90;;;;;;5054288;28;20100;-76
2022/04/30 01:20:51;;;;;;;8.90;8.00;;;11.70;99.90;;;;;;5053637;28;20029;-75
2022/04/30 01:23:17;;;;;;;10.93;7.90;;;11.70;99.90;;;;;;5054232;28;20021;-75
2022/04/30 01:25:44;;;;;;;11.40;7.85;;;11.80;99.90;;;;;;5054250;28;20071;-76
2022/04/30 01:28:12;;;;;;;8.75;7.90;;;11.90;99.90;;;;;;5040822;28;20026;-76
2022/04/30 01:30:37;;;;;;;10.70;8.40;;;11.90;99.90;;;;;;5046735;28;20471;-76
2022/04/30 01:38:31;;;;;;;9.02;7.57;;;11.90;99.90;;;;;;5054114;28;20105;-77
2022/04/30 01:40:57;;;;;;;11.40;8.23;;;11.90;99.90;;;;;;5051919;28;20171;-77
2022/04/30 01:43:24;;;;;;;12.95;9.38;;;11.60;99.90;;;;;;5053872;28;20032;-77
2022/04/30 01:45:50;;;;;;;11.60;8.48;;;11.60;99.90;;;;;;5053748;28;20490;-76
2022/04/30 01:48:15;;;;;;;10.30;8.43;;;11.50;99.90;;;;;;5053737;28;20020;-76
2022/04/30 01:50:42;;;;;;;10.18;8.18;;;11.60;99.90;;;;;;5042889;28;20080;-76
2022/04/30 01:53:08;;;;;;;12.23;8.98;;;11.60;99.90;;;;;;5047047;28;20044;-76
2022/04/30 01:55:33;;;;;;;10.75;8.00;;;11.70;99.90;;;;;;5044047;28;20021;-75
2022/04/30 01:57:59;;;;;;;12.10;8.88;;;11.80;99.90;;;;;;5040241;28;20036;-76
2022/04/30 02:00:26;;;;;;;9.65;8.15;;;11.70;99.90;;;;;;5051560;28;20462;-76
2022/04/30 02:02:54;;;;;;;11.05;8.13;;;11.70;99.90;;;;;;5053337;28;20391;-75
2022/04/30 02:05:20;;;;;;;12.77;9.18;;;11.80;99.90;;;;;;5053359;28;20025;-76
2022/04/30 02:07:53;;;;;;;12.20;8.43;;;11.90;99.90;;;;;;5052043;28;20060;-76
2022/04/30 02:10:21;;;;;;;11.88;9.10;;;12.00;99.90;;;;;;5052607;28;20056;-75
2022/04/30 02:12:47;;;;;;;12.02;8.98;;;11.60;99.90;;;;;;5053259;28;20041;-75
2022/04/30 02:15:17;;;;;;;11.13;8.70;;;11.20;99.90;;;;;;5053213;28;20388;-76
2022/04/30 02:17:46;;;;;;;10.50;8.50;;;11.20;99.90;;;;;;5053130;28;20029;-76
2022/04/30 02:20:24;;;;;;;10.13;8.70;;;11.30;99.90;;;;;;5052616;28;20029;-75
2022/04/30 02:22:52;;;;;;;12.15;8.88;;;11.40;99.90;;;;;;5044764;28;20491;-75
2022/04/30 02:25:19;;;;;;;9.65;8.65;;;11.50;99.90;;;;;;5046646;28;20722;-75
2022/04/30 02:27:51;;;;;;;9.00;7.90;;;11.50;99.90;;;;;;5041837;28;20088;-75
2022/04/30 02:30:22;;;;;;;9.63;8.52;;;11.40;99.90;;;;;;5052203;28;20014;-76
2022/04/30 02:32:48;;;;;;;9.95;8.10;;;11.30;99.90;;;;;;5052835;28;20021;-76
2022/04/30 02:35:22;;;;;;;13.05;8.52;;;11.20;99.90;;;;;;5052775;28;20028;-76
2022/04/30 02:37:50;;;;;;;11.02;8.85;;;11.30;99.90;;;;;;5052645;28;20117;-75
2022/04/30 02:40:18;;;;;;;10.35;9.07;;;11.10;99.90;;;;;;5046079;28;20029;-75
2022/04/30 02:42:44;;;;;;;12.45;9.35;;;11.00;99.90;;;;;;5044165;28;20497;-75
2022/04/30 02:45:11;;;;;;;12.10;9.32;;;10.90;99.90;;;;;;5069111;28;20017;-75
2022/04/30 02:47:39;;;;;;;9.85;8.45;;;10.90;99.90;;;;;;5052562;28;20025;-75
2022/04/30 02:50:09;;;;;;;11.02;9.50;;;10.90;99.90;;;;;;5050918;28;20079;-75
2022/04/30 02:52:36;;;;;;;10.50;9.38;;;10.80;99.90;;;;;;5051551;28;20025;-74
2022/04/30 02:55:02;;;;;;;12.15;9.60;;;10.80;99.90;;;;;;5032591;28;20362;-75
2022/04/30 03:00:38;;;;;;;10.80;8.82;;;10.90;99.90;;;;;;5046992;28;20051;-74
2022/04/30 03:03:04;;;;;;;12.55;9.35;;;10.90;99.90;;;;;;5052279;28;20027;-74
2022/04/30 03:05:31;;;;;;;10.80;8.90;;;10.80;99.90;;;;;;5052248;28;20120;-73
2022/04/30 03:07:58;;;;;;;10.82;8.95;;;10.60;99.90;;;;;;5052138;28;20017;-74
2022/04/30 03:10:24;;;;;;;9.88;8.85;;;10.70;99.90;;;;;;5051661;28;20017;-74
2022/04/30 03:12:49;;;;;;;10.45;9.05;;;10.90;99.90;;;;;;5044395;28;20491;-75
2022/04/30 03:15:19;;;;;;;10.38;9.30;;;10.90;99.90;;;;;;5045285;28;20037;-75
2022/04/30 03:23:14;;;;;;;9.15;8.25;;;10.80;99.90;;;;;;5052003;28;20132;-75
2022/04/30 03:25:40;;;;;;;11.90;9.02;;;10.90;99.90;;;;;;5031740;28;20551;-76
2022/04/30 03:28:06;;;;;;;11.75;9.18;;;11.00;99.90;;;;;;5044023;28;20013;-76
2022/04/30 03:30:31;;;;;;;11.32;9.20;;;11.00;99.90;;;;;;5049919;28;20445;-76
2022/04/30 03:32:57;;;;;;;13.57;9.38;;;11.00;99.90;;;;;;5038049;28;20112;-76
2022/04/30 03:35:23;;;;;;;12.32;9.02;;;10.90;99.90;;;;;;5044044;28;20033;-76
2022/04/30 03:37:48;;;;;;;11.45;9.02;;;10.90;99.90;;;;;;5043355;28;20515;-76
2022/04/30 03:40:14;;;;;;;9.25;8.35;;;10.80;99.90;;;;;;5037893;28;20029;-76
2022/04/30 03:42:39;;;;;;;10.23;8.57;;;10.80;99.90;;;;;;5040167;28;20025;-75
2022/04/30 03:45:05;;;;;;;8.85;8.00;;;10.80;99.90;;;;;;5044052;28;20021;-75
2022/04/30 03:47:31;;;;;;;10.48;8.55;;;10.70;99.90;;;;;;5043051;28;20100;-76
2022/04/30 03:49:59;;;;;;;10.07;9.13;;;10.70;99.90;;;;;;5037913;28;20108;-76
2022/04/30 03:52:24;;;;;;;10.15;8.32;;;10.70;99.90;;;;;;5039761;28;20014;-77
2022/04/30 03:54:50;;;;;;;13.10;8.65;;;10.70;99.90;;;;;;5043575;28;20470;-77
2022/04/30 03:57:15;;;;;;;11.95;9.02;;;10.70;99.90;;;;;;5043178;28;20104;-76
2022/04/30 03:59:41;;;;;;;11.30;8.20;;;10.70;99.90;;;;;;5041642;28;20040;-76
2022/04/30 04:02:06;;;;;;;10.00;9.00;;;10.60;99.90;;;;;;5050950;28;20028;-75
2022/04/30 04:04:32;;;;;;;11.95;9.05;;;10.50;99.90;;;;;;5051462;28;20024;-75
2022/04/30 04:06:58;;;;;;;11.20;9.25;;;10.50;99.90;;;;;;5051432;28;20029;-75
2022/04/30 04:09:23;;;;;;;13.75;9.48;;;10.30;99.90;;;;;;5051460;28;20083;-75
2022/04/30 04:11:49;;;;;;;12.00;10.52;;;10.20;99.90;;;;;;5050638;28;20029;-76
2022/04/30 04:19:44;;;;;;;15.10;10.40;;;10.00;99.90;;;;;;5051286;28;20036;-74
2022/04/30 04:22:09;;;;;;;13.73;10.27;;;10.10;99.90;;;;;;5050708;28;20112;-74
2022/04/30 04:27:19;;;;;;;11.43;10.23;;;10.30;99.90;;;;;;5051285;28;20036;-74
2022/04/30 04:29:46;;;;;;;13.65;10.35;;;10.40;99.90;;;;;;5049892;28;20391;-75
2022/04/30 04:32:12;;;;;;;16.38;10.75;;;10.40;99.90;;;;;;5050497;28;20028;-75
2022/04/30 04:34:37;;;;;;;12.50;10.13;;;10.40;99.90;;;;;;5051218;28;20021;-75
2022/04/30 04:37:03;;;;;;;13.32;10.85;;;10.20;99.90;;;;;;5037877;28;20025;-75
2022/04/30 04:39:29;;;;;;;15.10;11.18;;;10.20;99.90;;;;;;5051004;28;20075;-75
2022/04/30 04:41:54;;;;;;;15.43;11.57;;;10.10;99.90;;;;;;5049005;28;20025;-73
2022/04/30 04:44:21;;;;;;;15.07;11.93;;;10.10;99.90;;;;;;5052450;28;20040;-75
2022/04/30 04:46:47;;;;;;;13.55;11.52;;;10.10;99.90;;;;;;5054856;28;20043;-74
2022/04/30 04:49:13;;;;;;;16.52;11.98;;;10.00;99.90;;;;;;5053484;28;20112;-74
2022/04/30 04:51:39;;;;;;;13.13;11.88;;;10.00;99.90;;;;;;5053928;28;20112;-75
2022/04/30 04:54:04;;;;;;;14.43;11.57;;;10.00;99.90;;;;;;5053534;28;20052;-75
2022/04/30 04:56:31;;;;;;;13.60;12.20;;;10.10;99.90;;;;;;5054616;28;20025;-76
2022/04/30 04:58:56;;;;;;;16.92;12.23;;;10.20;99.90;;;;;;5054685;28;20433;-75
2022/04/30 05:01:22;;;;;;;14.05;12.27;;;10.20;99.90;;;;;;5053885;28;20017;-74
2022/04/30 05:03:48;;;;;;;16.17;13.23;;;10.20;99.90;;;;;;5041233;28;20108;-75
2022/04/30 05:06:14;;;;;;;16.27;12.73;;;10.20;99.90;;;;;;5051809;28;20071;-76
2022/04/30 05:08:39;;;;;;;16.50;13.43;;;10.30;99.90;;;;;;5053171;28;20399;-75
2022/04/30 05:11:05;;;;;;;15.73;11.85;;;10.40;99.90;;;;;;5053692;28;20021;-76
2022/04/30 05:13:30;;;;;;;14.85;12.73;;;10.40;99.90;;;;;;5054311;28;20029;-76
2022/04/30 05:15:56;;;;;;;13.55;11.98;;;10.40;99.90;;;;;;5054246;28;20454;-75
2022/04/30 05:18:21;;;;;;;15.15;13.18;;;10.50;99.90;;;;;;5054300;28;20039;-74
2022/04/30 05:20:47;;;;;;;15.88;13.02;;;10.60;99.90;;;;;;5047375;28;20611;-75
2022/04/30 05:23:12;;;;;;;14.63;12.75;;;10.50;99.90;;;;;;5045446;28;20158;-75
2022/04/30 05:25:40;;;;;;;13.48;12.10;;;10.50;99.90;;;;;;5054041;28;20410;-75
2022/04/30 05:28:07;;;;;;;16.52;12.32;;;10.50;99.90;;;;;;5052753;28;20440;-72
2022/04/30 05:30:33;;;;;;;14.93;12.57;;;10.60;99.90;;;;;;5053258;28;20028;-72
2022/04/30 05:32:58;;;;;;;13.75;12.10;;;10.70;99.90;;;;;;5052651;28;20024;-76
2022/04/30 05:35:24;;;;;;;14.57;12.73;;;10.80;99.90;;;;;;5053912;28;20091;-75
2022/04/30 05:37:50;;;;;;;16.15;14.05;;;10.70;99.90;;;;;;5053838;28;20095;-75
2022/04/30 05:40:15;;;;;;;15.70;11.90;;;10.80;99.90;;;;;;5053020;28;20029;-75
2022/04/30 05:42:41;;;;;;;14.35;12.70;;;10.90;99.90;;;;;;5053712;28;20033;-76
2022/04/30 05:45:07;;;;;;;16.05;11.80;;;10.90;99.90;;;;;;5053664;28;20031;-76
2022/04/30 05:47:33;;;;;;;14.90;12.27;;;11.10;99.90;;;;;;5053640;28;20061;-76
2022/04/30 05:49:58;;;;;;;14.70;12.82;;;11.10;99.90;;;;;;5053395;28;20533;-75
2022/04/30 05:52:24;;;;;;;14.55;12.43;;;11.20;99.90;;;;;;5053061;28;20025;-76
2022/04/30 05:54:49;;;;;;;15.10;13.55;;;11.30;99.90;;;;;;5052919;28;20082;-76
2022/04/30 05:57:15;;;;;;;13.85;12.07;;;11.30;99.90;;;;;;5052208;28;20104;-76
2022/04/30 05:59:40;;;;;;;21.95;11.82;;;11.30;99.90;;;;;;5053259;28;20036;-74
2022/04/30 06:02:06;;;;;;;12.45;9.88;;;11.40;99.90;;;;;;5053088;28;20087;-76
2022/04/30 06:04:32;;;;;;;11.20;8.95;;;11.40;99.90;;;;;;5053197;28;20029;-76
2022/04/30 06:06:58;;;;;;;12.70;9.23;;;11.50;99.90;;;;;;5053259;28;20394;-75
2022/04/30 06:09:24;;;;;;;10.05;8.88;;;11.50;99.90;;;;;;5053508;28;20490;-74
2022/04/30 06:11:50;;;;;;;10.90;8.65;;;11.60;99.90;;;;;;5052618;28;20467;-75
2022/04/30 06:14:16;;;;;;;9.77;8.77;;;11.60;99.90;;;;;;5053223;28;20033;-75
2022/04/30 06:16:41;;;;;;;12.05;8.93;;;11.70;99.90;;;;;;5053214;28;20082;-75
2022/04/30 06:19:07;;;;;;;10.70;9.02;;;11.70;99.90;;;;;;5053146;28;20102;-76
2022/04/30 06:21:32;;;;;;;13.75;9.00;;;11.80;99.90;;;;;;5052494;28;20029;-75
2022/04/30 06:23:58;;;;;;;14.82;10.45;;;11.90;99.90;;;;;;5052940;28;20395;-76
2022/04/30 06:26:23;;;;;;;11.73;10.57;;;11.90;99.90;;;;;;5051737;28;20025;-75
2022/04/30 06:28:49;;;;;;;12.40;10.73;;;12.00;99.90;;;;;;5052411;28;20463;-75
2022/04/30 06:31:14;;;;;;;12.50;11.18;;;12.20;99.90;;;;;;5052113;28;20029;-75
2022/04/30 06:33:40;;;;;;;12.77;10.48;;;12.20;99.90;;;;;;5052752;28;20025;-76
2022/04/30 06:36:05;;;;;;;14.18;10.90;;;12.30;99.90;;;;;;5052943;28;20541;-76
2022/04/30 06:38:31;;;;;;;10.30;9.13;;;12.60;99.90;;;;;;5052574;28;20037;-76
2022/04/30 06:40:58;;;;;;;10.98;9.02;;;12.70;99.90;;;;;;5051897;28;20025;-75
2022/04/30 06:43:23;;;;;;;11.57;9.05;;;12.90;99.90;;;;;;5052392;28;20025;-76
2022/04/30 06:45:49;;;;;;;10.15;8.45;;;13.10;99.90;;;;;;5051192;28;20495;-76
2022/04/30 06:48:14;;;;;;;14.15;9.32;;;13.40;99.90;;;;;;5052183;28;20108;-75
2022/04/30 06:50:40;;;;;;;10.02;8.73;;;13.60;99.90;;;;;;5051583;28;20111;-74
2022/04/30 06:58:41;;;;;;;12.07;10.35;;;13.20;99.90;;;;;;5051943;28;20065;-75
2022/04/30 07:01:29;;;;;;;11.48;9.82;;;13.20;99.90;;;;;;5051456;28;20035;-75
2022/04/30 07:04:01;;;;;;;14.02;10.15;;;13.20;99.90;;;;;;5052286;28;20430;-75
2022/04/30 07:06:34;;;;;;;11.57;9.88;;;13.40;99.90;;;;;;5044316;28;20028;-76
2022/04/30 07:09:00;;;;;;;12.07;9.93;;;13.50;99.90;;;;;;5046896;28;20049;-76
2022/04/30 07:11:26;;;;;;;11.75;9.80;;;13.70;99.90;;;;;;5049958;28;20070;-76
2022/04/30 07:13:52;;;;;;;13.98;10.02;;;14.00;99.90;;;;;;5050454;28;20020;-76
2022/04/30 07:16:17;;;;;;;12.02;9.93;;;14.30;99.90;;;;;;5050675;28;20039;-76
2022/04/30 07:18:43;;;;;;;11.65;10.15;;;14.50;99.90;;;;;;5038387;28;20537;-76
2022/04/30 07:21:08;;;;;;;10.63;8.45;;;14.70;99.90;;;;;;5051291;28;20036;-75
2022/04/30 07:23:34;;;;;;;12.45;8.63;;;14.90;99.90;;;;;;5050442;28;20093;-76
2022/04/30 07:26:00;;;;;;;10.05;8.95;;;15.00;99.90;;;;;;5051970;28;20032;-76
2022/04/30 07:28:26;;;;;;;9.85;8.85;;;15.10;99.90;;;;;;5051787;28;20025;-76
2022/04/30 07:30:52;;;;;;;13.27;9.13;;;15.20;99.90;;;;;;5049824;28;20020;-76
2022/04/30 07:33:18;;;;;;;12.10;9.43;;;15.40;99.90;;;;;;5051696;28;20595;-75
2022/04/30 07:35:43;;;;;;;11.15;8.63;;;15.30;99.90;;;;;;5051753;28;20479;-76
2022/04/30 07:38:09;;;;;;;11.20;8.73;;;15.30;99.90;;;;;;5051564;28;20103;-75
2022/04/30 07:40:38;;;;;;;11.80;8.70;;;15.30;99.90;;;;;;5050928;28;20033;-76
2022/04/30 07:43:04;;;;;;;11.13;8.82;;;15.30;99.90;;;;;;5051485;28;20091;-76
2022/04/30 07:45:29;;;;;;;10.75;9.45;;;15.40;99.90;;;;;;5051730;28;20032;-75
2022/04/30 07:47:55;;;;;;;9.50;8.30;;;15.60;99.90;;;;;;5051605;28;20087;-76
2022/04/30 07:50:22;;;;;;;9.50;8.60;;;15.40;99.90;;;;;;5043670;28;20033;-74
2022/04/30 07:52:48;;;;;;;10.43;9.32;;;15.30;99.90;;;;;;5037936;28;20048;-75
2022/04/30 07:55:14;;;;;;;13.15;9.02;;;15.30;99.90;;;;;;5056975;28;20070;-75
2022/04/30 07:57:40;;;;;;;9.90;7.90;;;15.30;99.90;;;;;;5059429;28;20036;-75
2022/04/30 08:00:06;;;;;;;10.88;8.13;;;15.50;99.90;;;;;;5060168;28;20391;-76
2022/04/30 08:02:32;;;;;;;9.10;7.60;;;15.40;99.90;;;;;;5058423;28;20100;-75
2022/04/30 08:04:58;;;;;;;9.38;7.90;;;15.40;99.90;;;;;;5059071;28;20151;-73
2022/04/30 08:07:23;;;;;;;9.05;8.05;;;15.10;99.90;;;;;;5047351;28;20559;-73
2022/04/30 08:09:49;;;;;;;10.27;7.97;;;15.00;99.90;;;;;;5062190;28;20057;-76
2022/04/30 08:12:17;;;;;;;12.02;8.13;;;15.00;99.90;;;;;;5054518;28;20431;-75
2022/04/30 08:14:44;;;;;;;9.23;8.07;;;15.20;99.90;;;;;;5052198;28;20017;-76
2022/04/30 08:17:09;;;;;;;9.20;7.75;;;15.40;99.90;;;;;;5050000;28;20083;-77
2022/04/30 08:19:35;;;;;;;12.90;8.48;;;15.80;99.90;;;;;;5045335;28;20395;-79
2022/04/30 08:22:01;;;;;;;11.40;8.95;;;15.90;99.90;;;;;;5060545;28;20025;-78
2022/04/30 08:24:26;;;;;;;12.60;9.00;;;15.80;99.90;;;;;;5057989;28;20033;-78
2022/04/30 08:26:51;;;;;;;10.43;8.48;;;15.70;99.90;;;;;;5058535;28;20033;-78
2022/04/30 08:29:17;;;;;;;10.95;8.43;;;15.90;99.90;;;;;;5055784;28;20024;-78
2022/04/30 08:31:42;;;;;;;8.88;7.95;;;16.10;99.90;;;;;;5077363;28;20094;-78
2022/04/30 08:34:08;;;;;;;14.05;8.00;;;16.00;99.90;;;;;;5052552;28;20025;-78
2022/04/30 08:36:33;;;;;;;10.30;8.50;;;16.10;99.90;;;;;;5056281;28;20059;-79
2022/04/30 08:38:59;;;;;;;9.93;8.77;;;16.10;99.90;;;;;;5061974;28;20033;-78
2022/04/30 08:41:25;;;;;;;9.50;8.40;;;16.20;99.90;;;;;;5058557;28;20029;-78
2022/04/30 08:43:50;;;;;;;11.07;7.93;;;16.40;99.90;;;;;;5056294;28;20031;-74
2022/04/30 08:46:20;;;;;;;11.48;8.52;;;16.50;99.90;;;;;;5054946;28;20024;-75
2022/04/30 08:48:47;;;;;;;9.93;7.50;;;16.40;99.90;;;;;;5054867;28;20032;-76
2022/04/30 08:51:15;;;;;;;10.15;8.35;;;16.60;99.90;;;;;;5052470;28;20036;-75
2022/04/30 08:53:41;;;;;;;9.13;8.00;;;16.60;99.90;;;;;;5053418;28;20079;-76
2022/04/30 08:56:08;;;;;;;9.30;8.30;;;16.70;99.90;;;;;;5053385;28;20032;-76
2022/04/30 08:58:33;;;;;;;12.57;7.82;;;16.60;99.90;;;;;;5054572;28;20027;-76
2022/04/30 09:01:02;;;;;;;12.52;8.57;;;16.90;99.90;;;;;;5053432;28;20033;-75
2022/04/30 09:03:32;;;;;;;11.38;8.88;;;17.00;99.90;;;;;;5053399;28;20104;-76
2022/04/30 09:06:00;;;;;;;8.98;8.05;;;16.80;99.90;;;;;;5070072;28;20516;-76
2022/04/30 09:08:25;;;;;;;9.65;8.00;;;16.70;99.90;;;;;;5054531;28;20060;-76
2022/04/30 09:10:51;;;;;;;14.75;8.88;;;16.10;99.90;;;;;;5050516;28;20048;-76
2022/04/30 09:13:17;;;;;;;10.60;8.23;;;16.20;99.90;;;;;;5044123;28;20060;-76
2022/04/30 09:15:45;;;;;;;11.18;8.70;;;15.90;99.90;;;;;;5054199;28;20021;-76
2022/04/30 09:18:12;;;;;;;10.25;8.35;;;16.00;99.90;;;;;;5054209;28;20036;-76
2022/04/30 09:20:42;;;;;;;11.88;8.85;;;16.00;99.90;;;;;;5053454;28;20032;-76
2022/04/30 09:23:09;;;;;;;10.93;8.90;;;16.20;99.90;;;;;;5053771;28;20033;-76
2022/04/30 09:25:34;;;;;;;11.05;8.15;;;16.30;99.90;;;;;;5054066;28;20025;-76
2022/04/30 09:28:00;;;;;;;10.25;8.73;;;16.60;99.90;;;;;;5052721;28;20031;-77
2022/04/30 09:30:29;;;;;;;10.23;8.60;;;16.40;99.90;;;;;;5052460;28;20037;-76
2022/04/30 09:33:03;;;;;;;15.85;9.13;;;16.50;99.90;;;;;;5053979;28;20017;-76
2022/04/30 09:38:15;;;;;;;13.85;9.52;;;16.80;99.90;;;;;;5054170;28;20074;-75
2022/04/30 09:40:50;;;;;;;14.65;10.23;;;16.60;99.90;;;;;;5053002;28;20025;-76
2022/04/30 09:43:16;;;;;;;11.48;9.10;;;16.90;99.90;;;;;;5053810;28;20086;-76
2022/04/30 09:45:42;;;;;;;12.65;8.63;;;17.10;99.90;;;;;;5053725;28;20032;-76
2022/04/30 09:53:57;;;;;;;9.88;8.88;;;17.40;99.90;;;;;;5042381;28;20082;-75
2022/04/30 09:56:39;;;;;;;14.07;9.15;;;17.60;99.90;;;;;;5052635;28;20025;-75
2022/04/30 09:59:07;;;;;;;10.82;9.75;;;17.10;99.90;;;;;;5053485;28;20029;-75
2022/04/30 10:01:34;;;;;;;10.98;9.52;;;17.20;99.90;;;;;;5038797;28;20036;-75
2022/04/30 10:04:10;;;;;;;11.10;9.68;;;17.10;99.90;;;;;;5052869;28;20387;-74
2022/04/30 10:06:49;;;;;;;12.38;9.38;;;17.50;99.90;;;;;;5053220;28;20491;-75
2022/04/30 10:09:17;;;;;;;12.57;10.25;;;17.70;99.90;;;;;;5053214;28;20032;-75
2022/04/30 10:12:09;;;;;;;14.48;9.45;;;17.90;99.90;;;;;;5052291;28;20017;-75
2022/04/30 10:15:04;;;;;;;10.52;8.88;;;17.90;99.90;;;;;;5047367;28;20139;-75
2022/04/30 10:17:34;;;;;;;12.23;9.90;;;18.30;99.90;;;;;;5050754;28;20048;-75
2022/04/30 10:20:07;;;;;;;15.75;9.60;;;18.40;99.90;;;;;;5052676;28;20475;-75
2022/04/30 10:22:33;;;;;;;12.13;9.68;;;18.30;99.90;;;;;;5068709;28;20482;-74
2022/04/30 10:24:59;;;;;;;11.10;10.00;;;18.30;99.90;;;;;;5058893;28;20036;-75
2022/04/30 10:27:43;;;;;;;11.88;8.73;;;17.70;99.90;;;;;;5051746;28;20479;-75
2022/04/30 10:30:23;;;;;;;14.18;9.82;;;18.00;99.90;;;;;;5051517;28;20492;-74
2022/04/30 10:33:02;;;;;;;11.63;9.30;;;17.80;99.90;;;;;;5052844;28;20391;-75
2022/04/30 10:35:33;;;;;;;10.68;9.38;;;18.00;99.90;;;;;;5052706;28;20027;-75
2022/04/30 10:38:18;;;;;;;10.25;9.00;;;18.00;99.90;;;;;;5052834;28;20075;-75
2022/04/30 10:40:51;;;;;;;9.60;8.57;;;17.90;99.90;;;;;;5032243;28;20021;-75
2022/04/30 10:43:35;;;;;;;11.27;9.57;;;18.10;99.90;;;;;;5049156;28;20104;-74
2022/04/30 10:46:03;;;;;;;10.70;8.52;;;18.40;99.90;;;;;;5040420;28;20068;-74
2022/04/30 10:48:29;;;;;;;13.48;9.43;;;18.50;99.90;;;;;;5046116;28;20045;-74
2022/04/30 10:51:12;;;;;;;10.32;9.00;;;18.70;99.90;;;;;;5044441;28;20060;-75
2022/04/30 10:53:42;;;;;;;9.73;8.55;;;19.00;99.90;;;;;;5039222;28;20031;-75
2022/04/30 10:56:08;;;;;;;9.75;8.75;;;19.30;99.90;;;;;;5052440;28;20040;-75
2022/04/30 10:58:38;;;;;;;11.85;8.40;;;19.40;99.90;;;;;;5052418;28;20642;-74
2022/04/30 11:01:18;;;;;;;10.05;8.18;;;19.30;99.90;;;;;;5050392;28;20669;-75
2022/04/30 11:03:48;;;;;;;10.40;8.43;;;19.50;99.90;;;;;;5052050;28;20025;-75
2022/04/30 11:06:22;;;;;;;10.20;8.02;;;19.50;99.90;;;;;;5052281;28;20021;-75
2022/04/30 11:09:07;;;;;;;9.80;7.93;;;19.10;99.90;;;;;;5052302;28;20048;-74
2022/04/30 11:11:34;;;;;;;8.50;7.70;;;19.00;99.20;;;;;;5040677;28;20364;-75
2022/04/30 11:14:05;;;;;;;8.27;7.47;;;18.90;98.50;;;;;;5052144;28;20051;-75
2022/04/30 11:16:35;;;;;;;11.35;7.82;;;19.10;99.20;;;;;;5050767;28;20029;-75
2022/04/30 11:19:08;;;;;;;8.75;7.85;;;18.80;99.90;;;;;;5052185;28;20056;-75
2022/04/30 11:21:38;;;;;;;9.68;7.88;;;19.10;99.60;;;;;;5051259;28;20428;-76
2022/04/30 11:24:05;;;;;;;8.98;7.45;;;18.90;98.70;;;;;;5050488;28;20119;-75
2022/04/30 11:26:36;;;;;;;9.18;7.68;;;18.90;98.90;;;;;;5050609;28;20029;-76
2022/04/30 11:29:06;;;;;;;8.25;7.35;;;19.10;97.50;;;;;;5051735;28;20017;-75
2022/04/30 11:31:31;;;;;;;7.47;6.78;;;18.90;98.60;;;;;;5050927;28;20031;-75
2022/04/30 11:34:07;;;;;;;8.23;7.25;;;18.90;98.40;;;;;;5051760;28;20025;-75
2022/04/30 11:36:57;;;;;;;8.55;7.75;;;18.80;99.20;;;;;;5051637;28;20029;-75
2022/04/30 11:39:23;;;;;;;12.00;7.82;;;19.00;98.20;;;;;;5051606;28;20033;-75
2022/04/30 11:41:52;;;;;;;9.18;7.47;;;18.90;97.50;;;;;;5050804;28;20037;-75
2022/04/30 11:44:22;;;;;;;8.18;7.13;;;19.30;98.50;;;;;;5051625;28;20017;-75
2022/04/30 11:46:51;;;;;;;8.85;7.95;;;19.60;98.30;;;;;;5051371;28;20086;-75
2022/04/30 11:49:19;;;;;;;10.05;8.02;;;19.00;97.50;;;;;;5051456;28;20021;-75
2022/04/30 11:51:45;;;;;;;9.35;7.20;;;18.90;98.20;;;;;;5050628;28;20021;-75
2022/04/30 11:54:13;;;;;;;8.85;7.75;;;19.00;98.50;;;;;;5051068;28;20459;-75
2022/04/30 11:56:42;;;;;;;8.02;7.22;;;19.10;98.70;;;;;;5051524;28;20052;-75
2022/04/30 11:59:08;;;;;;;9.27;6.80;;;19.20;98.30;;;;;;5051533;28;20100;-74
2022/04/30 12:01:35;;;;;;;7.60;6.80;;;19.10;97.90;;;;;;5050754;28;20592;-74
2022/04/30 12:04:08;;;;;;;8.57;6.88;;;19.10;97.00;;;;;;5050084;28;20479;-74
2022/04/30 12:06:34;;;;;;;11.23;7.10;;;19.00;98.10;;;;;;5050236;28;20025;-74
2022/04/30 12:09:00;;;;;;;9.20;7.55;;;18.90;97.20;;;;;;5051522;28;20676;-74
2022/04/30 12:11:26;;;;;;;11.43;7.80;;;18.70;98.10;;;;;;5049515;28;20032;-74
2022/04/30 12:14:02;;;;;;;8.13;6.53;;;18.60;96.80;;;;;;5050101;28;20036;-74
2022/04/30 12:16:36;;;;;;;10.98;8.02;;;18.70;97.70;;;;;;5051315;28;20017;-76
2022/04/30 12:24:43;;;;;;;8.77;7.80;;;18.80;97.80;;;;;;5040003;28;20044;-75
2022/04/30 12:27:18;;;;;;;7.65;6.75;;;18.70;97.40;;;;;;5051134;28;20021;-75
2022/04/30 12:29:44;;;;;;;8.45;7.00;;;18.80;97.90;;;;;;5050996;28;20029;-76
2022/04/30 12:32:09;;;;;;;9.55;7.40;;;18.70;97.50;;;;;;5049274;28;20075;-75
2022/04/30 12:34:40;;;;;;;8.65;7.75;;;18.30;98.50;;;;;;5049957;28;20040;-76
2022/04/30 12:37:06;;;;;;;13.27;8.65;;;17.90;99.90;;;;;;5037730;28;20028;-75
2022/04/30 12:39:32;;;;;;;9.15;7.97;;;17.90;99.90;;;;;;5039184;28;20025;-75
2022/04/30 12:41:58;;;;;;;8.63;7.32;;;17.80;99.90;;;;;;5046169;28;20541;-75
2022/04/30 12:44:24;;;;;;;10.57;8.20;;;17.90;99.90;;;;;;5043135;28;20048;-75
2022/04/30 12:46:49;;;;;;;9.95;6.55;;;17.90;99.50;;;;;;5037648;28;20028;-75
2022/04/30 12:49:16;;;;;;;6.47;4.97;;;17.80;99.90;;;;;;5038911;28;20387;-74
2022/04/30 12:51:43;;;;;;;7.40;5.88;;;17.00;99.90;;;;;;5043894;28;20037;-75
2022/04/30 12:54:12;;;;;;;7.18;6.35;;;16.40;99.90;;;;;;5041683;28;20021;-74
2022/04/30 12:56:39;;;;;;;8.25;6.50;;;15.90;99.90;;;;;;5037522;28;20090;-75
2022/04/30 12:59:05;;;;;;;10.80;7.43;;;15.50;99.90;;;;;;5050897;28;20383;-75
2022/04/30 13:01:31;;;;;;;8.50;7.47;;;14.80;99.90;;;;;;5050157;28;20048;-75
2022/04/30 13:03:56;;;;;;;9.23;8.32;;;14.80;99.90;;;;;;5049567;28;20450;-75
2022/04/30 13:06:22;;;;;;;12.48;8.52;;;14.80;99.90;;;;;;5048688;28;20025;-75
2022/04/30 13:14:16;;;;;;;18.52;12.30;;;14.20;99.90;;;;;;5054500;28;20081;-74
2022/04/30 13:16:41;;;;;;;16.70;12.02;;;13.80;99.90;;;;;;5053021;28;20511;-74
2022/04/30 13:19:07;;;;;;;17.00;12.55;;;13.70;99.90;;;;;;5054202;28;20082;-74
2022/04/30 13:21:33;;;;;;;14.35;11.43;;;13.30;99.90;;;;;;5053364;28;20044;-74
2022/04/30 13:23:59;;;;;;;13.82;12.45;;;12.90;99.90;;;;;;5054122;28;20036;-74